Time;durP1;ratioP1;P1;durP2;ratioP2;P2;SDS_P1;SDS_P2;PMS_P1;PMS_P2;Temp;Humidity;BMP_temperature;BMP_pressure;BME280_temperature;BME280_humidity;BME280_pressure;Samples;Min_cycle;Max_cycle;Signal;HPM_P1;HPM_P2
2021/05/16 00:00:16;;;;;;;9.13;2.20;;;12.20;86.00;;;;;;5095067;28;20455;-68
2021/05/16 00:02:43;;;;;;;11.90;2.57;;;12.30;86.20;;;;;;5095909;28;20460;-68
2021/05/16 00:05:11;;;;;;;12.40;2.57;;;12.20;85.70;;;;;;5095054;28;20501;-68
2021/05/16 00:07:38;;;;;;;9.20;2.30;;;12.30;85.80;;;;;;5095010;28;20443;-68
2021/05/16 00:10:05;;;;;;;10.60;2.93;;;12.30;85.30;;;;;;5095025;28;20486;-68
2021/05/16 00:12:31;;;;;;;10.80;2.77;;;12.30;85.50;;;;;;5094875;28;20450;-69
2021/05/16 00:14:59;;;;;;;12.77;3.10;;;12.40;85.70;;;;;;5094690;28;20455;-69
2021/05/16 00:17:26;;;;;;;11.70;2.30;;;12.40;86.50;;;;;;5094899;28;20428;-68
2021/05/16 00:19:53;;;;;;;11.27;2.70;;;12.40;85.70;;;;;;5094481;28;20814;-68
2021/05/16 00:22:19;;;;;;;9.73;3.00;;;12.40;85.90;;;;;;5094645;28;20476;-68
2021/05/16 00:24:46;;;;;;;11.23;4.00;;;12.50;85.80;;;;;;5094749;28;20448;-68
2021/05/16 00:27:12;;;;;;;10.90;2.63;;;12.50;85.70;;;;;;5094635;28;20451;-68
2021/05/16 00:29:38;;;;;;;9.87;2.20;;;12.50;85.30;;;;;;5094626;28;20505;-68
2021/05/16 00:32:05;;;;;;;7.40;2.17;;;12.40;85.30;;;;;;5094274;28;20995;-68
2021/05/16 00:34:32;;;;;;;10.03;2.50;;;12.50;85.60;;;;;;5093439;28;20475;-68
2021/05/16 00:36:59;;;;;;;12.40;3.23;;;12.50;85.50;;;;;;5094467;28;20497;-68
2021/05/16 00:39:25;;;;;;;23.70;3.30;;;12.50;85.70;;;;;;5094502;28;20452;-68
2021/05/16 00:41:51;;;;;;;11.80;3.03;;;12.60;85.40;;;;;;5094356;28;20475;-68
2021/05/16 00:44:19;;;;;;;16.90;3.27;;;12.50;85.60;;;;;;5094520;28;20464;-68
2021/05/16 00:46:45;;;;;;;9.03;2.20;;;12.50;85.60;;;;;;5094259;28;20543;-68
2021/05/16 00:49:13;;;;;;;9.30;3.20;;;12.50;85.20;;;;;;5094272;28;20447;-68
2021/05/16 00:51:40;;;;;;;13.40;3.77;;;12.50;84.60;;;;;;5094479;28;20439;-68
2021/05/16 00:54:07;;;;;;;12.00;2.63;;;12.50;84.90;;;;;;5094084;28;20471;-68
2021/05/16 00:56:33;;;;;;;9.20;2.30;;;12.50;84.80;;;;;;5094128;28;20497;-68
2021/05/16 00:59:00;;;;;;;9.03;3.30;;;12.50;85.40;;;;;;5094034;28;20447;-68
2021/05/16 01:01:26;;;;;;;12.33;2.87;;;12.40;84.30;;;;;;5094000;28;20476;-68
2021/05/16 01:03:53;;;;;;;15.83;3.17;;;12.50;84.50;;;;;;5093969;28;20463;-69
2021/05/16 01:06:19;;;;;;;11.20;2.37;;;12.40;83.40;;;;;;5094033;28;20516;-68
2021/05/16 01:08:47;;;;;;;10.63;2.73;;;12.30;83.70;;;;;;5093698;28;20451;-68
2021/05/16 01:11:14;;;;;;;13.47;2.70;;;12.30;83.60;;;;;;5093923;28;20938;-68
2021/05/16 01:13:41;;;;;;;8.83;2.90;;;12.20;83.80;;;;;;5093930;28;20823;-68
2021/05/16 01:16:08;;;;;;;10.20;2.53;;;12.20;83.70;;;;;;5093537;28;20456;-68
2021/05/16 01:18:34;;;;;;;10.80;2.87;;;12.20;83.60;;;;;;5093903;28;20530;-68
2021/05/16 01:21:01;;;;;;;5.87;2.50;;;12.10;83.60;;;;;;5094261;28;20477;-68
2021/05/16 01:23:31;;;;;;;9.70;2.33;;;12.10;83.50;;;;;;5093717;28;20529;-68
2021/05/16 01:25:58;;;;;;;8.80;2.17;;;12.10;83.70;;;;;;5093782;28;20465;-68
2021/05/16 01:28:24;;;;;;;9.47;2.40;;;12.10;83.50;;;;;;5093788;28;20448;-68
2021/05/16 01:30:51;;;;;;;10.77;3.20;;;12.00;83.70;;;;;;5093454;28;20466;-68
2021/05/16 01:33:18;;;;;;;11.37;2.60;;;12.00;84.20;;;;;;5093594;28;20911;-68
2021/05/16 01:35:45;;;;;;;10.17;2.40;;;11.90;83.90;;;;;;5093334;28;21014;-68
2021/05/16 01:38:12;;;;;;;13.80;2.80;;;11.90;83.90;;;;;;5093263;28;20972;-68
2021/05/16 01:40:41;;;;;;;13.10;2.90;;;11.90;84.50;;;;;;5093216;28;21043;-68
2021/05/16 01:43:08;;;;;;;11.17;3.40;;;11.90;84.20;;;;;;5093504;28;20462;-68
2021/05/16 01:45:36;;;;;;;15.53;3.20;;;11.90;84.20;;;;;;5094540;28;20451;-68
2021/05/16 01:48:02;;;;;;;11.07;2.13;;;11.90;84.10;;;;;;5097476;28;21002;-68
2021/05/16 01:50:31;;;;;;;8.83;2.53;;;11.90;84.10;;;;;;5097788;28;20436;-68
2021/05/16 01:53:00;;;;;;;12.13;3.40;;;11.80;84.20;;;;;;5097642;28;20515;-68
2021/05/16 01:55:27;;;;;;;11.17;3.00;;;11.70;84.70;;;;;;5097839;28;20447;-69
2021/05/16 01:57:54;;;;;;;8.43;2.97;;;11.60;84.90;;;;;;5097563;28;20439;-69
2021/05/16 02:00:26;;;;;;;10.57;2.73;;;11.70;85.70;;;;;;5097551;28;20443;-69
2021/05/16 02:02:53;;;;;;;10.50;2.30;;;11.70;85.30;;;;;;5097407;28;20493;-69
2021/05/16 02:05:20;;;;;;;17.87;3.60;;;11.70;85.40;;;;;;5097710;28;20447;-69
2021/05/16 02:07:47;;;;;;;13.93;3.43;;;11.70;85.20;;;;;;5097148;28;20921;-69
2021/05/16 02:10:14;;;;;;;12.90;2.70;;;11.70;85.40;;;;;;5097304;28;20455;-69
2021/05/16 02:12:40;;;;;;;13.50;3.47;;;11.70;85.50;;;;;;5097181;28;20459;-69
2021/05/16 02:15:11;;;;;;;11.13;2.67;;;11.70;85.60;;;;;;5097512;28;20451;-69
2021/05/16 02:17:39;;;;;;;10.97;2.57;;;11.80;85.80;;;;;;5097159;28;20436;-69
2021/05/16 02:20:06;;;;;;;9.80;2.33;;;11.80;85.30;;;;;;5097037;28;20447;-69
2021/05/16 02:22:33;;;;;;;12.20;2.47;;;11.80;85.70;;;;;;5097379;28;20524;-68
2021/05/16 02:24:59;;;;;;;10.47;2.37;;;11.90;85.70;;;;;;5097626;28;20926;-68
2021/05/16 02:27:25;;;;;;;6.80;2.80;;;11.90;85.70;;;;;;5096555;28;20865;-68
2021/05/16 02:29:51;;;;;;;17.03;2.97;;;11.90;85.60;;;;;;5096562;28;20466;-68
2021/05/16 02:32:19;;;;;;;13.03;3.00;;;11.90;85.00;;;;;;5097044;28;20439;-68
2021/05/16 02:34:45;;;;;;;13.10;2.80;;;11.90;85.50;;;;;;5097022;28;20450;-68
2021/05/16 02:37:11;;;;;;;9.63;2.27;;;12.00;85.50;;;;;;5096736;28;20497;-68
2021/05/16 02:39:37;;;;;;;11.43;2.80;;;12.00;85.50;;;;;;5096718;28;20448;-68
2021/05/16 02:42:04;;;;;;;7.67;2.40;;;12.00;85.40;;;;;;5096558;28;20482;-68
2021/05/16 02:44:30;;;;;;;7.37;2.40;;;12.00;85.40;;;;;;5096540;28;20512;-68
2021/05/16 02:46:57;;;;;;;9.00;2.50;;;12.00;85.20;;;;;;5096567;28;20498;-68
2021/05/16 02:49:24;;;;;;;8.30;1.60;;;12.00;85.30;;;;;;5096642;28;20447;-68
2021/05/16 02:51:50;;;;;;;6.47;2.67;;;12.00;85.50;;;;;;5096128;28;20950;-68
2021/05/16 02:54:16;;;;;;;7.83;2.00;;;12.00;85.40;;;;;;5096279;28;20464;-68
2021/05/16 02:56:43;;;;;;;6.93;1.90;;;12.00;85.70;;;;;;5095378;28;20799;-68
2021/05/16 02:59:09;;;;;;;7.27;1.90;;;12.00;85.60;;;;;;5096203;28;20461;-68
2021/05/16 03:01:35;;;;;;;8.90;1.90;;;11.90;86.00;;;;;;5096211;28;20483;-68
2021/05/16 03:04:01;;;;;;;8.83;1.83;;;11.80;86.00;;;;;;5096161;28;20468;-68
2021/05/16 03:06:28;;;;;;;6.70;2.40;;;11.80;86.10;;;;;;5096227;28;20439;-68
2021/05/16 03:08:54;;;;;;;7.83;2.47;;;11.80;86.30;;;;;;5096157;28;20443;-68
2021/05/16 03:11:21;;;;;;;6.80;1.90;;;11.70;86.30;;;;;;5095740;28;20919;-68
2021/05/16 03:13:47;;;;;;;11.17;3.43;;;11.70;86.50;;;;;;5095995;28;20472;-68
2021/05/16 03:16:13;;;;;;;11.23;1.93;;;11.70;86.60;;;;;;5095677;28;20463;-68
2021/05/16 03:18:39;;;;;;;7.30;2.00;;;11.70;86.40;;;;;;5095981;28;20521;-68
2021/05/16 03:21:06;;;;;;;8.67;2.63;;;11.70;86.70;;;;;;5095856;28;20476;-68
2021/05/16 03:23:33;;;;;;;7.00;1.83;;;11.70;86.80;;;;;;5095793;28;20524;-68
2021/05/16 03:26:01;;;;;;;9.13;3.27;;;11.70;86.90;;;;;;5095858;28;20501;-68
2021/05/16 03:28:28;;;;;;;5.40;1.67;;;11.70;87.10;;;;;;5095780;28;20460;-68
2021/05/16 03:30:54;;;;;;;8.93;2.37;;;11.70;87.10;;;;;;5095696;28;20435;-68
2021/05/16 03:33:20;;;;;;;11.73;2.57;;;11.70;87.10;;;;;;5095628;28;20468;-68
2021/05/16 03:35:47;;;;;;;5.23;2.23;;;11.70;86.90;;;;;;5095703;28;20447;-68
2021/05/16 03:38:13;;;;;;;7.17;2.00;;;11.70;87.10;;;;;;5095599;28;20450;-68
2021/05/16 03:40:40;;;;;;;9.00;2.30;;;11.70;87.30;;;;;;5095497;28;20480;-68
2021/05/16 03:43:06;;;;;;;8.77;2.20;;;11.70;87.60;;;;;;5095407;28;20464;-68
2021/05/16 03:45:34;;;;;;;6.20;1.90;;;11.70;87.70;;;;;;5095152;28;20809;-68
2021/05/16 03:48:00;;;;;;;7.00;3.13;;;11.60;87.40;;;;;;5095431;28;20455;-68
2021/05/16 03:50:27;;;;;;;9.57;2.73;;;11.60;87.90;;;;;;5095370;28;20444;-68
2021/05/16 03:52:53;;;;;;;7.83;3.27;;;11.60;87.90;;;;;;5095214;28;20475;-68
2021/05/16 03:55:21;;;;;;;9.57;2.87;;;11.60;88.10;;;;;;5095264;28;20887;-68
2021/05/16 03:57:49;;;;;;;5.83;2.20;;;11.60;88.00;;;;;;5095199;28;20447;-68
2021/05/16 04:00:17;;;;;;;11.00;3.00;;;11.60;88.20;;;;;;5094807;28;21024;-68
2021/05/16 04:02:43;;;;;;;9.40;2.47;;;11.60;88.40;;;;;;5095023;28;20470;-68
2021/05/16 04:05:10;;;;;;;10.87;2.83;;;11.60;88.30;;;;;;5094734;28;20443;-68
2021/05/16 04:07:36;;;;;;;7.60;2.90;;;11.60;88.40;;;;;;5094710;28;20443;-68
2021/05/16 04:10:03;;;;;;;5.80;2.23;;;11.70;88.50;;;;;;5094746;28;20455;-68
2021/05/16 04:12:30;;;;;;;7.67;2.30;;;11.60;88.40;;;;;;5094834;28;20475;-68
2021/05/16 04:14:57;;;;;;;4.70;2.20;;;11.70;88.70;;;;;;5094739;28;20493;-68
2021/05/16 04:17:23;;;;;;;10.40;3.33;;;11.70;88.70;;;;;;5094827;28;20446;-68
2021/05/16 04:19:49;;;;;;;8.70;2.63;;;11.70;88.80;;;;;;5094822;28;20454;-68
2021/05/16 04:22:16;;;;;;;10.53;2.80;;;11.80;88.60;;;;;;5094669;28;20483;-68
2021/05/16 04:24:42;;;;;;;7.67;2.70;;;11.80;88.40;;;;;;5094418;28;20960;-68
2021/05/16 04:27:08;;;;;;;6.13;2.77;;;11.80;88.60;;;;;;5094952;28;20447;-68
2021/05/16 04:29:35;;;;;;;9.27;3.23;;;11.90;88.40;;;;;;5094335;28;20452;-68
2021/05/16 04:32:02;;;;;;;9.50;2.77;;;11.90;88.40;;;;;;5094180;28;20439;-68
2021/05/16 04:34:28;;;;;;;6.07;2.43;;;12.00;88.70;;;;;;5094476;28;20467;-68
2021/05/16 04:36:54;;;;;;;9.37;2.50;;;12.00;88.80;;;;;;5094522;28;20451;-68
2021/05/16 04:39:21;;;;;;;6.90;2.83;;;12.10;88.50;;;;;;5094496;28;20811;-68
2021/05/16 04:41:48;;;;;;;8.77;2.83;;;12.10;88.10;;;;;;5094357;28;20812;-68
2021/05/16 04:44:14;;;;;;;10.03;2.90;;;12.20;87.80;;;;;;5094346;28;20460;-68
2021/05/16 04:46:40;;;;;;;9.13;3.20;;;12.20;88.00;;;;;;5094289;28;20444;-68
2021/05/16 04:49:07;;;;;;;10.27;2.13;;;12.30;88.00;;;;;;5094359;28;20435;-68
2021/05/16 04:51:33;;;;;;;13.70;3.30;;;12.40;88.10;;;;;;5094212;28;20497;-68
2021/05/16 04:53:59;;;;;;;8.50;3.17;;;12.40;87.70;;;;;;5093713;28;20927;-68
2021/05/16 04:56:27;;;;;;;13.40;3.20;;;12.50;87.80;;;;;;5094094;28;20895;-68
2021/05/16 04:58:53;;;;;;;8.60;2.50;;;12.50;87.30;;;;;;5094103;28;20451;-68
2021/05/16 05:01:21;;;;;;;9.07;2.50;;;12.60;87.30;;;;;;5094151;28;20479;-68
2021/05/16 05:03:48;;;;;;;7.73;2.43;;;12.60;87.30;;;;;;5093970;28;20565;-68
2021/05/16 05:06:15;;;;;;;7.10;2.60;;;12.70;87.10;;;;;;5093605;28;20942;-68
2021/05/16 05:08:41;;;;;;;12.20;3.30;;;12.70;87.00;;;;;;5093893;28;20443;-68
2021/05/16 05:11:07;;;;;;;8.83;2.97;;;12.70;86.90;;;;;;5093836;28;20448;-68
2021/05/16 05:13:34;;;;;;;10.47;2.80;;;12.70;86.80;;;;;;5094092;28;20585;-68
2021/05/16 05:16:00;;;;;;;9.77;2.90;;;12.70;86.60;;;;;;5093642;28;20486;-68
2021/05/16 05:18:26;;;;;;;6.93;3.10;;;12.80;86.40;;;;;;5093867;28;20446;-68
2021/05/16 05:20:52;;;;;;;4.53;2.70;;;12.80;86.60;;;;;;5093098;28;20491;-69
2021/05/16 05:23:19;;;;;;;8.47;2.97;;;12.80;86.60;;;;;;5093367;28;20985;-69
2021/05/16 05:25:47;;;;;;;8.93;2.97;;;12.90;86.50;;;;;;5093375;28;20820;-69
2021/05/16 05:28:16;;;;;;;15.30;3.00;;;12.90;85.90;;;;;;5093623;28;20444;-69
2021/05/16 05:30:43;;;;;;;10.50;2.80;;;13.00;85.80;;;;;;5093278;28;20952;-68
2021/05/16 05:33:09;;;;;;;9.53;2.37;;;13.00;85.70;;;;;;5093504;28;20467;-68
2021/05/16 05:35:35;;;;;;;6.37;2.40;;;13.10;85.60;;;;;;5093247;28;20960;-68
2021/05/16 05:38:01;;;;;;;12.47;2.83;;;13.20;85.70;;;;;;5093559;28;20443;-68
2021/05/16 05:40:28;;;;;;;11.00;3.20;;;13.20;85.50;;;;;;5093483;28;20448;-68
2021/05/16 05:42:55;;;;;;;6.20;2.23;;;13.20;85.50;;;;;;5093473;28;20471;-68
2021/05/16 05:45:21;;;;;;;7.73;2.90;;;13.20;85.50;;;;;;5093532;28;20474;-68
2021/05/16 05:47:47;;;;;;;6.40;2.70;;;13.20;85.90;;;;;;5093548;28;20451;-68
2021/05/16 05:50:13;;;;;;;5.97;2.37;;;13.10;86.20;;;;;;5093466;28;20849;-68
2021/05/16 05:52:40;;;;;;;8.77;3.30;;;13.10;86.60;;;;;;5093378;28;20464;-68
2021/05/16 05:55:07;;;;;;;11.17;3.00;;;13.10;87.00;;;;;;5093364;28;20439;-68
2021/05/16 05:57:34;;;;;;;7.63;2.77;;;13.10;87.80;;;;;;5093411;28;20446;-68
2021/05/16 06:00:00;;;;;;;10.03;2.90;;;13.10;87.50;;;;;;5093416;28;20451;-68
2021/05/16 06:02:27;;;;;;;6.80;3.37;;;13.10;87.80;;;;;;5093251;28;20541;-68
2021/05/16 06:04:54;;;;;;;11.17;3.87;;;13.10;88.20;;;;;;5093398;28;20450;-68
2021/05/16 06:07:20;;;;;;;11.13;4.00;;;13.10;88.00;;;;;;5093068;28;21000;-68
2021/05/16 06:09:46;;;;;;;9.30;2.80;;;13.10;88.50;;;;;;5093096;28;20428;-68
2021/05/16 06:12:14;;;;;;;10.00;2.83;;;13.20;89.00;;;;;;5093364;28;20443;-68
2021/05/16 06:14:42;;;;;;;10.00;3.00;;;13.20;88.40;;;;;;5093204;28;20825;-68
2021/05/16 06:17:08;;;;;;;12.70;3.67;;;13.20;88.80;;;;;;5092842;28;20463;-68
2021/05/16 06:19:34;;;;;;;7.70;2.83;;;13.10;88.60;;;;;;5093405;28;20428;-68
2021/05/16 06:22:00;;;;;;;8.70;3.50;;;13.10;88.50;;;;;;5093150;28;20479;-68
2021/05/16 06:24:27;;;;;;;7.70;3.30;;;13.10;88.70;;;;;;5093214;28;20471;-68
2021/05/16 06:26:53;;;;;;;12.13;4.30;;;13.00;89.00;;;;;;5093404;28;20448;-68
2021/05/16 06:29:19;;;;;;;10.70;3.40;;;13.00;89.20;;;;;;5093142;28;20436;-68
2021/05/16 06:31:46;;;;;;;9.90;3.30;;;13.00;90.00;;;;;;5094562;28;20444;-68
2021/05/16 06:34:13;;;;;;;8.77;2.90;;;13.00;89.80;;;;;;5096800;28;20468;-68
2021/05/16 06:36:40;;;;;;;9.80;3.30;;;13.00;90.00;;;;;;5096825;28;20448;-68
2021/05/16 06:39:07;;;;;;;8.20;3.07;;;13.10;90.10;;;;;;5096871;28;20435;-68
2021/05/16 06:41:34;;;;;;;7.83;2.63;;;13.10;90.10;;;;;;5097043;28;20467;-68
2021/05/16 06:44:00;;;;;;;7.23;3.00;;;13.10;89.80;;;;;;5096635;28;20459;-68
2021/05/16 06:46:28;;;;;;;9.50;3.00;;;13.20;89.90;;;;;;5096634;28;20818;-68
2021/05/16 06:48:55;;;;;;;9.87;3.63;;;13.30;89.30;;;;;;5096623;28;20443;-68
2021/05/16 06:51:22;;;;;;;6.50;2.97;;;13.30;89.00;;;;;;5096587;28;20448;-68
2021/05/16 06:53:48;;;;;;;7.80;2.30;;;13.40;88.90;;;;;;5096540;28;20464;-68
2021/05/16 06:56:15;;;;;;;11.67;3.00;;;13.40;88.30;;;;;;5096464;28;20439;-68
2021/05/16 06:58:42;;;;;;;11.10;3.13;;;13.50;88.50;;;;;;5096440;28;20447;-68
2021/05/16 07:01:08;;;;;;;6.33;2.37;;;13.60;88.20;;;;;;5096301;28;20479;-68
2021/05/16 07:03:37;;;;;;;11.23;2.33;;;13.70;87.90;;;;;;5096338;28;20830;-68
2021/05/16 07:06:05;;;;;;;11.03;3.07;;;13.80;87.40;;;;;;5096319;28;20450;-69
2021/05/16 07:08:31;;;;;;;7.90;2.80;;;13.90;85.70;;;;;;5096252;28;20451;-68
2021/05/16 07:10:58;;;;;;;7.97;2.40;;;14.00;85.60;;;;;;5096292;28;20439;-69
2021/05/16 07:13:24;;;;;;;9.37;2.40;;;14.10;85.30;;;;;;5096065;28;20500;-68
2021/05/16 07:15:50;;;;;;;15.23;3.33;;;14.10;85.00;;;;;;5095791;28;20957;-68
2021/05/16 07:18:17;;;;;;;5.40;2.23;;;14.10;84.60;;;;;;5096075;28;20496;-69
2021/05/16 07:20:43;;;;;;;13.43;3.30;;;14.10;84.70;;;;;;5096127;28;20492;-69
2021/05/16 07:23:11;;;;;;;11.87;2.43;;;14.20;84.50;;;;;;5095613;28;20464;-68
2021/05/16 07:25:37;;;;;;;8.90;2.80;;;14.30;83.20;;;;;;5096152;28;20479;-68
2021/05/16 07:28:04;;;;;;;9.30;2.30;;;14.20;81.20;;;;;;5095943;28;20526;-68
2021/05/16 07:30:30;;;;;;;11.00;3.77;;;14.30;82.80;;;;;;5095885;28;20466;-68
2021/05/16 07:32:57;;;;;;;9.13;2.00;;;14.30;83.40;;;;;;5095812;28;20547;-68
2021/05/16 07:35:23;;;;;;;7.97;2.07;;;14.30;82.50;;;;;;5095518;28;20822;-69
2021/05/16 07:37:50;;;;;;;9.50;2.80;;;14.20;81.80;;;;;;5095933;28;20488;-69
2021/05/16 07:40:17;;;;;;;5.80;1.70;;;14.20;81.30;;;;;;5095635;28;20444;-69
2021/05/16 07:42:44;;;;;;;5.40;1.77;;;14.30;81.70;;;;;;5094749;28;20483;-69
2021/05/16 07:45:11;;;;;;;5.00;2.40;;;14.40;81.70;;;;;;5095391;28;21014;-68
2021/05/16 07:47:38;;;;;;;5.23;1.90;;;14.40;80.90;;;;;;5095500;28;20501;-68
2021/05/16 07:50:07;;;;;;;5.07;1.60;;;14.30;80.90;;;;;;5095659;28;20451;-68
2021/05/16 07:52:34;;;;;;;4.27;1.70;;;14.50;81.90;;;;;;5095039;28;20455;-68
2021/05/16 07:55:00;;;;;;;3.37;1.70;;;14.60;80.50;;;;;;5095068;28;20446;-68
2021/05/16 07:57:27;;;;;;;7.27;1.83;;;14.60;79.40;;;;;;5095049;28;20454;-68
2021/05/16 07:59:54;;;;;;;4.90;1.80;;;14.60;80.00;;;;;;5095326;28;20810;-68
2021/05/16 08:02:20;;;;;;;4.73;1.73;;;14.60;78.90;;;;;;5094820;28;20505;-68
2021/05/16 08:04:47;;;;;;;5.23;2.30;;;14.60;77.80;;;;;;5094856;28;20473;-68
2021/05/16 08:07:13;;;;;;;6.90;2.50;;;14.40;78.00;;;;;;5095394;28;20484;-68
2021/05/16 08:09:40;;;;;;;9.13;2.43;;;14.40;78.50;;;;;;5095207;28;20440;-68
2021/05/16 08:12:06;;;;;;;11.80;2.60;;;14.60;79.70;;;;;;5094732;28;20444;-68
2021/05/16 08:14:34;;;;;;;8.53;2.97;;;14.60;77.50;;;;;;5095079;28;20835;-68
2021/05/16 08:17:02;;;;;;;10.83;2.30;;;14.80;76.10;;;;;;5094848;28;20467;-68
2021/05/16 08:19:29;;;;;;;13.63;3.30;;;14.70;75.10;;;;;;5094663;28;20971;-69
2021/05/16 08:21:55;;;;;;;9.47;2.60;;;14.90;75.40;;;;;;5094788;28;20525;-69
2021/05/16 08:24:22;;;;;;;10.13;2.67;;;15.10;76.40;;;;;;5094452;28;20459;-69
2021/05/16 08:26:49;;;;;;;9.73;2.17;;;15.50;73.00;;;;;;5094970;28;20447;-69
2021/05/16 08:29:15;;;;;;;8.17;2.80;;;15.70;72.10;;;;;;5094529;28;20448;-69
2021/05/16 08:31:43;;;;;;;11.80;2.70;;;15.80;69.50;;;;;;5094375;28;20443;-69
2021/05/16 08:34:10;;;;;;;10.53;4.27;;;15.80;69.50;;;;;;5094576;28;20472;-68
2021/05/16 08:36:38;;;;;;;5.90;2.67;;;15.80;68.60;;;;;;5094264;28;20933;-68
2021/05/16 08:39:07;;;;;;;6.30;2.87;;;15.70;69.50;;;;;;5094433;28;20478;-68
2021/05/16 08:41:34;;;;;;;9.10;2.90;;;15.70;69.50;;;;;;5094105;28;20475;-68
2021/05/16 08:44:01;;;;;;;7.63;2.37;;;15.90;70.80;;;;;;5094093;28;20522;-68
2021/05/16 08:46:28;;;;;;;8.40;2.60;;;16.10;71.10;;;;;;5094485;28;20439;-69
2021/05/16 08:48:56;;;;;;;6.70;2.33;;;16.20;70.20;;;;;;5094246;28;20424;-69
2021/05/16 08:51:22;;;;;;;7.17;2.77;;;16.40;73.50;;;;;;5094119;28;20428;-69
2021/05/16 08:53:49;;;;;;;9.40;2.77;;;16.60;68.60;;;;;;5093898;28;20521;-68
2021/05/16 08:56:16;;;;;;;8.20;2.33;;;16.70;66.40;;;;;;5093565;28;20458;-68
2021/05/16 08:58:43;;;;;;;11.03;3.23;;;16.70;67.50;;;;;;5094305;28;20432;-68
2021/05/16 09:01:20;;;;;;;7.10;2.73;;;17.10;66.90;;;;;;5094228;28;20506;-69
2021/05/16 09:03:47;;;;;;;6.60;2.30;;;17.20;64.50;;;;;;5094171;28;20546;-69
2021/05/16 09:06:15;;;;;;;12.53;3.10;;;16.90;64.10;;;;;;5094049;28;20439;-68
2021/05/16 09:08:42;;;;;;;4.27;1.80;;;16.20;70.50;;;;;;5093818;28;20439;-68
2021/05/16 09:11:09;;;;;;;4.20;1.20;;;15.90;71.50;;;;;;5093740;28;20443;-68
2021/05/16 09:13:38;;;;;;;3.97;1.47;;;15.70;68.50;;;;;;5093601;28;20551;-68
2021/05/16 09:16:08;;;;;;;3.90;1.50;;;15.60;71.00;;;;;;5093572;28;20467;-68
2021/05/16 09:18:37;;;;;;;2.23;1.60;;;15.60;72.60;;;;;;5093587;28;20910;-69
2021/05/16 09:21:26;;;;;;;4.73;1.60;;;15.60;73.60;;;;;;5093433;28;20510;-68
2021/05/16 09:24:13;;;;;;;7.23;2.00;;;15.90;76.30;;;;;;5093706;28;20521;-68
2021/05/16 09:26:55;;;;;;;6.30;2.27;;;16.40;77.20;;;;;;5093509;28;20462;-69
2021/05/16 09:29:26;;;;;;;10.17;2.87;;;16.80;73.70;;;;;;5093466;28;20926;-69
2021/05/16 09:31:54;;;;;;;5.60;2.17;;;17.10;72.00;;;;;;5093728;28;20477;-69
2021/05/16 09:34:21;;;;;;;10.20;2.87;;;17.40;71.20;;;;;;5093568;28;20484;-69
2021/05/16 09:36:50;;;;;;;6.17;2.47;;;17.50;68.10;;;;;;5093701;28;20440;-69
2021/05/16 09:39:18;;;;;;;7.10;2.17;;;17.50;70.70;;;;;;5093620;28;20439;-69
2021/05/16 09:42:03;;;;;;;11.57;2.80;;;17.10;69.00;;;;;;5093506;28;20569;-68
2021/05/16 09:44:31;;;;;;;18.07;3.43;;;16.50;71.80;;;;;;5093189;28;20463;-68
2021/05/16 09:47:17;;;;;;;6.83;2.03;;;15.80;74.00;;;;;;5093207;28;20535;-68
2021/05/16 09:49:47;;;;;;;2.83;1.20;;;15.30;73.10;;;;;;5093235;28;20428;-68
2021/05/16 09:52:16;;;;;;;3.50;0.70;;;15.00;72.90;;;;;;5093158;28;20434;-68
2021/05/16 09:55:03;;;;;;;3.90;0.93;;;14.80;71.50;;;;;;5093643;28;20487;-68
2021/05/16 09:57:31;;;;;;;2.63;0.83;;;14.60;72.20;;;;;;5093204;28;20460;-68
2021/05/16 09:59:58;;;;;;;2.77;1.50;;;14.20;72.20;;;;;;5093434;28;20447;-68
2021/05/16 10:02:27;;;;;;;3.93;1.30;;;13.70;78.40;;;;;;5093267;28;20480;-68
2021/05/16 10:04:54;;;;;;;4.57;1.30;;;13.50;80.10;;;;;;5093550;28;20447;-68
2021/05/16 10:07:24;;;;;;;2.80;0.87;;;13.50;78.40;;;;;;5096205;28;20504;-68
2021/05/16 10:09:52;;;;;;;1.70;0.70;;;13.70;77.30;;;;;;5097421;28;20475;-68
2021/05/16 10:12:21;;;;;;;1.43;0.60;;;14.20;78.30;;;;;;5096938;28;20954;-68
2021/05/16 10:14:51;;;;;;;2.43;0.73;;;14.80;75.50;;;;;;5096992;28;20432;-68
2021/05/16 10:17:20;;;;;;;3.07;0.80;;;15.30;70.60;;;;;;5096862;28;20509;-69
2021/05/16 10:19:47;;;;;;;3.73;1.20;;;15.80;69.70;;;;;;5097154;28;20454;-69
2021/05/16 10:22:15;;;;;;;3.07;0.80;;;16.30;69.70;;;;;;5097034;28;20528;-69
2021/05/16 10:24:44;;;;;;;4.20;1.13;;;17.00;71.70;;;;;;5097093;28;20525;-69
2021/05/16 10:27:22;;;;;;;3.10;1.20;;;17.50;67.60;;;;;;5097265;28;20469;-69
2021/05/16 10:29:50;;;;;;;6.47;1.30;;;18.20;61.90;;;;;;5097586;28;20427;-69
2021/05/16 10:32:24;;;;;;;6.93;1.20;;;19.00;59.50;;;;;;5097173;28;20444;-69
2021/05/16 10:34:59;;;;;;;3.23;1.37;;;19.40;58.20;;;;;;5096832;28;20451;-69
2021/05/16 10:37:37;;;;;;;6.77;1.70;;;19.70;56.10;;;;;;5096822;28;20437;-69
2021/05/16 10:40:09;;;;;;;7.53;2.00;;;20.00;57.40;;;;;;5096479;28;20957;-69
2021/05/16 10:42:37;;;;;;;4.60;1.67;;;21.20;56.30;;;;;;5096353;28;20973;-69
2021/05/16 10:45:10;;;;;;;5.47;1.63;;;21.90;50.80;;;;;;5097061;28;20444;-69
2021/05/16 10:47:53;;;;;;;4.03;1.40;;;22.30;50.30;;;;;;5096772;28;20471;-69
2021/05/16 10:50:57;;;;;;;6.53;1.73;;;22.30;47.00;;;;;;5096722;28;20440;-69
2021/05/16 10:53:29;;;;;;;4.63;1.53;;;21.80;45.90;;;;;;5064800;28;20475;-69
2021/05/16 10:56:11;;;;;;;4.67;1.63;;;21.60;49.80;;;;;;5096600;28;20428;-69
2021/05/16 10:58:46;;;;;;;3.53;1.60;;;21.90;51.30;;;;;;5096601;28;20814;-69
2021/05/16 11:01:14;;;;;;;4.53;1.57;;;22.00;48.00;;;;;;5096405;28;20455;-69
2021/05/16 11:03:48;;;;;;;8.40;1.60;;;21.90;48.70;;;;;;5096611;28;20470;-69
2021/05/16 11:06:15;;;;;;;7.00;1.40;;;21.90;47.30;;;;;;5096947;28;20416;-69
2021/05/16 11:09:10;;;;;;;5.90;1.40;;;22.00;48.70;;;;;;5096333;28;20436;-70
2021/05/16 11:11:54;;;;;;;5.80;2.03;;;22.10;49.20;;;;;;5096300;28;20490;-69
2021/05/16 11:14:23;;;;;;;5.37;2.10;;;22.30;46.80;;;;;;5096165;28;20463;-69
2021/05/16 11:16:52;;;;;;;4.30;1.87;;;21.80;46.90;;;;;;5096108;28;20466;-69
2021/05/16 11:19:21;;;;;;;5.20;2.00;;;21.30;49.20;;;;;;5094809;28;20530;-69
2021/05/16 11:21:47;;;;;;;5.90;1.40;;;20.90;47.90;;;;;;5096249;28;20475;-69
2021/05/16 11:24:15;;;;;;;4.23;2.07;;;20.90;49.50;;;;;;5096235;28;20468;-69
2021/05/16 11:26:42;;;;;;;3.90;1.40;;;21.10;48.40;;;;;;5095691;28;20448;-69
2021/05/16 11:29:09;;;;;;;4.30;1.87;;;21.40;48.60;;;;;;5096144;28;20443;-69
2021/05/16 11:31:36;;;;;;;5.03;2.03;;;21.50;47.20;;;;;;5095881;28;20439;-69
2021/05/16 11:34:05;;;;;;;4.20;1.37;;;21.70;48.30;;;;;;5095764;28;20467;-69
2021/05/16 11:36:33;;;;;;;4.37;1.60;;;21.90;48.80;;;;;;5095435;28;20454;-69
2021/05/16 11:39:01;;;;;;;5.10;1.80;;;22.00;48.90;;;;;;5095784;28;20444;-69
2021/05/16 11:41:30;;;;;;;6.43;1.40;;;22.10;46.00;;;;;;5095555;28;21020;-69
2021/05/16 11:43:58;;;;;;;4.37;1.30;;;21.90;46.40;;;;;;5095510;28;20471;-69
2021/05/16 11:46:28;;;;;;;3.07;1.40;;;21.60;47.40;;;;;;5095618;28;20440;-69
2021/05/16 11:48:54;;;;;;;3.77;1.47;;;21.30;47.50;;;;;;5095509;28;20444;-69
2021/05/16 11:51:21;;;;;;;5.30;1.70;;;21.20;47.30;;;;;;5095542;28;20544;-69
2021/05/16 11:53:52;;;;;;;5.77;2.43;;;20.80;46.90;;;;;;5095374;28;20651;-69
2021/05/16 11:56:20;;;;;;;4.57;1.67;;;20.70;49.20;;;;;;5095159;28;20902;-69
2021/05/16 11:58:47;;;;;;;5.07;1.80;;;20.80;49.60;;;;;;5095387;28;20581;-69
2021/05/16 12:01:14;;;;;;;3.10;1.27;;;21.30;49.00;;;;;;5095259;28;20450;-69
2021/05/16 12:03:53;;;;;;;4.37;1.93;;;21.70;46.60;;;;;;5095157;28;20468;-69
2021/05/16 12:06:19;;;;;;;3.90;1.20;;;22.00;46.00;;;;;;5095330;28;20428;-69
2021/05/16 12:08:56;;;;;;;3.40;1.70;;;22.10;44.70;;;;;;5095137;28;20448;-69
2021/05/16 12:11:22;;;;;;;2.93;1.37;;;21.80;44.50;;;;;;5094868;28;20435;-69
2021/05/16 12:13:49;;;;;;;5.30;1.40;;;21.70;46.30;;;;;;5095294;28;20459;-69
2021/05/16 12:16:18;;;;;;;6.53;1.70;;;21.40;46.20;;;;;;5094557;28;20957;-69
2021/05/16 12:18:45;;;;;;;3.80;1.40;;;21.10;46.30;;;;;;5094642;28;20447;-69
2021/05/16 12:21:14;;;;;;;4.57;1.50;;;20.80;46.10;;;;;;5094456;28;20937;-69
2021/05/16 12:23:48;;;;;;;3.57;0.87;;;20.60;48.10;;;;;;5094744;28;20649;-69
2021/05/16 12:26:15;;;;;;;6.03;1.20;;;20.70;48.20;;;;;;5094799;28;20443;-69
2021/05/16 12:28:42;;;;;;;3.00;1.07;;;20.50;46.80;;;;;;5094718;28;20440;-69
2021/05/16 12:31:08;;;;;;;3.77;1.20;;;20.70;46.30;;;;;;5094540;28;20451;-69
2021/05/16 12:33:37;;;;;;;8.67;1.20;;;21.10;47.10;;;;;;5094556;28;20474;-69
2021/05/16 12:36:04;;;;;;;5.90;0.93;;;21.30;45.70;;;;;;5094554;28;20497;-69
2021/05/16 12:38:41;;;;;;;4.80;1.13;;;21.30;46.20;;;;;;5094593;28;20444;-69
2021/05/16 12:41:15;;;;;;;4.47;1.20;;;21.20;43.70;;;;;;5094597;28;20442;-69
2021/05/16 12:43:42;;;;;;;2.77;1.20;;;21.30;43.80;;;;;;5094440;28;20468;-69
2021/05/16 12:46:08;;;;;;;2.03;0.90;;;21.00;44.70;;;;;;5094469;28;20443;-69